createdAt,value
2017-10-29T00:00:43.536Z,0
2017-10-29T00:01:43.524Z,0
2017-10-29T00:02:43.514Z,0
2017-10-29T00:03:43.502Z,0
2017-10-29T00:04:43.501Z,0
2017-10-29T00:05:43.498Z,0
2017-10-29T00:06:43.156Z,0
2017-10-29T00:07:43.157Z,0
2017-10-29T00:08:43.460Z,0
2017-10-29T00:09:43.452Z,0
2017-10-29T00:10:43.122Z,0
2017-10-29T00:11:43.439Z,0
2017-10-29T00:12:43.425Z,0
2017-10-29T00:13:43.415Z,0
2017-10-29T00:14:43.094Z,0
2017-10-29T00:15:43.408Z,0
2017-10-29T00:16:43.406Z,0
2017-10-29T00:17:43.642Z,0
2017-10-29T00:18:43.381Z,0
2017-10-29T00:19:43.046Z,0
2017-10-29T00:20:43.362Z,0
2017-10-29T00:21:43.352Z,0
2017-10-29T00:22:43.345Z,0
2017-10-29T00:23:43.335Z,0
2017-10-29T00:24:43.018Z,0
2017-10-29T00:25:42.997Z,0
2017-10-29T00:26:43.308Z,0
2017-10-29T00:27:42.988Z,0
2017-10-29T00:28:42.642Z,0
2017-10-29T00:29:43.281Z,0
2017-10-29T00:30:42.956Z,0
2017-10-29T00:31:43.299Z,0
2017-10-29T00:32:43.256Z,0
2017-10-29T00:33:42.931Z,0
2017-10-29T00:34:43.240Z,0
2017-10-29T00:35:43.224Z,0
2017-10-29T00:36:43.229Z,0
2017-10-29T00:37:43.216Z,0
2017-10-29T00:38:42.564Z,0
2017-10-29T00:39:43.198Z,0
2017-10-29T00:40:42.868Z,0
2017-10-29T00:41:42.868Z,0
2017-10-29T00:42:42.849Z,0
2017-10-29T00:43:42.850Z,0
2017-10-29T00:44:43.156Z,0
2017-10-29T00:45:42.824Z,0
2017-10-29T00:46:42.817Z,0
2017-10-29T00:47:42.812Z,0
2017-10-29T00:48:43.377Z,0
2017-10-29T00:49:42.806Z,0
2017-10-29T00:50:42.469Z,0
2017-10-29T00:51:42.775Z,0
2017-10-29T00:52:43.093Z,0
2017-10-29T00:53:42.755Z,0
2017-10-29T00:54:43.079Z,0
2017-10-29T00:55:43.069Z,0
2017-10-29T00:56:43.063Z,0
2017-10-29T00:57:43.054Z,0
2017-10-29T00:58:42.727Z,0
2017-10-29T00:59:43.035Z,0
2017-10-29T01:00:43.047Z,0
2017-10-29T01:01:42.708Z,0
2017-10-29T01:02:42.690Z,0
2017-10-29T01:03:43.001Z,0
2017-10-29T01:04:42.666Z,0
2017-10-29T01:05:42.985Z,0
2017-10-29T01:06:42.356Z,0
2017-10-29T01:07:42.650Z,0
2017-10-29T01:08:42.959Z,0
2017-10-29T01:09:42.629Z,0
2017-10-29T01:10:42.939Z,0
2017-10-29T01:11:42.932Z,0
2017-10-29T01:12:42.286Z,0
2017-10-29T01:13:42.592Z,0
2017-10-29T01:14:42.589Z,0
2017-10-29T01:15:42.897Z,0
2017-10-29T01:16:42.893Z,0
2017-10-29T01:17:42.886Z,0
2017-10-29T01:18:42.228Z,0
2017-10-29T01:19:43.122Z,0
2017-10-29T01:20:42.863Z,0
2017-10-29T01:21:42.844Z,0
2017-10-29T01:22:42.843Z,0
2017-10-29T01:23:42.515Z,0
2017-10-29T01:24:42.833Z,0
2017-10-29T01:25:42.819Z,0
2017-10-29T01:26:42.820Z,0
2017-10-29T01:27:42.519Z,0
2017-10-29T01:28:42.999Z,0
2017-10-29T01:29:42.794Z,0
2017-10-29T01:30:42.455Z,0
2017-10-29T01:31:42.455Z,0
2017-10-29T01:32:42.766Z,0
2017-10-29T01:33:42.757Z,0
2017-10-29T01:34:42.751Z,0
2017-10-29T01:35:42.415Z,0
2017-10-29T01:36:42.440Z,0
2017-10-29T01:37:42.730Z,0
2017-10-29T01:38:41.746Z,0
2017-10-29T01:39:42.380Z,0
2017-10-29T01:40:42.051Z,0
2017-10-29T01:41:42.690Z,0
2017-10-29T01:42:42.705Z,0
2017-10-29T01:43:42.351Z,0
2017-10-29T01:44:42.345Z,0
2017-10-29T01:45:42.013Z,0
2017-10-29T01:46:42.655Z,0
2017-10-29T01:47:42.660Z,0
2017-10-29T01:48:42.666Z,0
2017-10-29T01:49:42.631Z,0
2017-10-29T01:50:42.872Z,0
2017-10-29T01:51:42.614Z,0
2017-10-29T01:52:42.602Z,0
2017-10-29T01:53:42.290Z,0
2017-10-29T01:54:42.261Z,0
2017-10-29T01:55:42.575Z,0
2017-10-29T01:56:42.574Z,0
2017-10-29T01:57:42.572Z,0
2017-10-29T01:58:42.548Z,0
2017-10-29T01:59:42.541Z,0
2017-10-29T02:00:42.536Z,0
2017-10-29T02:01:42.549Z,0
2017-10-29T02:02:42.532Z,0
2017-10-29T02:03:42.197Z,0
2017-10-29T02:04:42.181Z,0
2017-10-29T02:05:42.175Z,0
2017-10-29T02:06:42.512Z,0
2017-10-29T02:07:42.485Z,0
2017-10-29T02:08:42.470Z,0
2017-10-29T02:09:42.459Z,0
2017-10-29T02:10:42.471Z,0
2017-10-29T02:11:42.124Z,0
2017-10-29T02:12:42.442Z,0
2017-10-29T02:13:42.446Z,0
2017-10-29T02:14:42.420Z,0
2017-10-29T02:15:41.443Z,0
2017-10-29T02:16:42.410Z,0
2017-10-29T02:17:42.395Z,0
2017-10-29T02:18:42.409Z,0
2017-10-29T02:19:42.387Z,0
2017-10-29T02:20:42.383Z,0
2017-10-29T02:21:42.613Z,0
2017-10-29T02:22:42.031Z,0
2017-10-29T02:23:42.344Z,0
2017-10-29T02:24:42.337Z,0
2017-10-29T02:25:42.008Z,0
2017-10-29T02:26:42.328Z,0
2017-10-29T02:27:42.324Z,0
2017-10-29T02:28:41.987Z,0
2017-10-29T02:29:42.299Z,0
2017-10-29T02:30:42.303Z,0
2017-10-29T02:31:41.957Z,0
2017-10-29T02:32:42.305Z,0
2017-10-29T02:33:42.275Z,0
2017-10-29T02:34:42.255Z,0
2017-10-29T02:35:42.254Z,0
2017-10-29T02:36:42.260Z,0
2017-10-29T02:37:41.591Z,0
2017-10-29T02:38:42.240Z,0
2017-10-29T02:39:41.577Z,0
2017-10-29T02:40:42.211Z,0
2017-10-29T02:41:42.205Z,0
2017-10-29T02:42:42.190Z,0
2017-10-29T02:43:41.861Z,0
2017-10-29T02:44:41.861Z,0
2017-10-29T02:45:42.164Z,0
2017-10-29T02:46:41.838Z,0
2017-10-29T02:47:42.152Z,0
2017-10-29T02:48:42.145Z,0
2017-10-29T02:49:41.814Z,0
2017-10-29T02:50:41.830Z,0
2017-10-29T02:51:42.130Z,0
2017-10-29T02:52:42.362Z,0
2017-10-29T02:53:41.777Z,0
2017-10-29T02:54:42.088Z,0
2017-10-29T02:55:41.766Z,0
2017-10-29T02:56:42.087Z,0
2017-10-29T02:57:41.749Z,0
2017-10-29T02:58:42.061Z,0
2017-10-29T02:59:42.063Z,0
2017-10-29T03:00:41.716Z,0
2017-10-29T03:01:42.046Z,0
2017-10-29T03:02:42.024Z,0
2017-10-29T03:03:41.744Z,0
2017-10-29T03:04:42.009Z,0
2017-10-29T03:05:41.998Z,0
2017-10-29T03:06:42.036Z,0
2017-10-29T03:07:41.332Z,0
2017-10-29T03:08:41.654Z,0
2017-10-29T03:09:41.980Z,0
2017-10-29T03:10:41.963Z,0
2017-10-29T03:11:41.629Z,0
2017-10-29T03:12:41.941Z,0
2017-10-29T03:13:41.934Z,0
2017-10-29T03:14:40.952Z,0
2017-10-29T03:15:41.912Z,0
2017-10-29T03:16:41.583Z,0
2017-10-29T03:17:41.905Z,0
2017-10-29T03:18:41.595Z,0
2017-10-29T03:19:41.557Z,0
2017-10-29T03:20:41.237Z,0
2017-10-29T03:21:41.863Z,0
2017-10-29T03:22:41.533Z,0
2017-10-29T03:23:40.875Z,0
2017-10-29T03:24:42.090Z,0
2017-10-29T03:25:41.522Z,0
2017-10-29T03:26:41.820Z,0
2017-10-29T03:27:41.490Z,0
2017-10-29T03:28:41.478Z,0
2017-10-29T03:29:41.471Z,0
2017-10-29T03:30:41.816Z,0
2017-10-29T03:31:41.772Z,0
2017-10-29T03:32:41.793Z,0
2017-10-29T03:33:41.755Z,0
2017-10-29T03:34:41.746Z,0
2017-10-29T03:35:41.749Z,0
2017-10-29T03:36:41.727Z,0
2017-10-29T03:37:41.393Z,0
2017-10-29T03:38:41.709Z,0
2017-10-29T03:39:41.703Z,0
2017-10-29T03:40:41.702Z,0
2017-10-29T03:41:41.681Z,0
2017-10-29T03:42:41.056Z,0
2017-10-29T03:43:41.666Z,0
2017-10-29T03:44:41.653Z,0
2017-10-29T03:45:41.319Z,0
2017-10-29T03:46:41.313Z,0
2017-10-29T03:47:41.627Z,0
2017-10-29T03:48:41.303Z,0
2017-10-29T03:49:41.610Z,0
2017-10-29T03:50:41.599Z,0
2017-10-29T03:51:41.595Z,0
2017-10-29T03:52:40.935Z,0
2017-10-29T03:53:41.578Z,0
2017-10-29T03:54:40.919Z,0
2017-10-29T03:55:41.493Z,0
2017-10-29T03:56:41.546Z,0
2017-10-29T03:57:41.213Z,0
2017-10-29T03:58:41.540Z,0
2017-10-29T03:59:41.535Z,0
2017-10-29T04:00:41.521Z,0
2017-10-29T04:01:41.185Z,0
2017-10-29T04:02:41.490Z,0
2017-10-29T04:03:41.159Z,0
2017-10-29T04:04:41.480Z,0
2017-10-29T04:05:41.473Z,0
2017-10-29T04:06:41.473Z,0
2017-10-29T04:07:41.452Z,0
2017-10-29T04:08:41.121Z,0
2017-10-29T04:09:41.108Z,0
2017-10-29T04:10:41.095Z,0
2017-10-29T04:11:41.416Z,0
2017-10-29T04:12:41.405Z,0
2017-10-29T04:13:41.412Z,0
2017-10-29T04:14:41.385Z,0
2017-10-29T04:15:41.060Z,0
2017-10-29T04:16:41.365Z,0
2017-10-29T04:17:41.370Z,0
2017-10-29T04:18:41.022Z,0
2017-10-29T04:19:41.329Z,0
2017-10-29T04:20:41.006Z,0
2017-10-29T04:21:41.321Z,0
2017-10-29T04:22:40.986Z,0
2017-10-29T04:23:41.303Z,0
2017-10-29T04:24:41.289Z,0
2017-10-29T04:25:40.961Z,0
2017-10-29T04:26:41.517Z,0
2017-10-29T04:27:41.258Z,0
2017-10-29T04:28:40.921Z,0
2017-10-29T04:29:41.234Z,0
2017-10-29T04:30:40.898Z,0
2017-10-29T04:31:40.569Z,0
2017-10-29T04:32:40.237Z,0
2017-10-29T04:33:41.206Z,0
2017-10-29T04:34:40.868Z,0
2017-10-29T04:35:40.854Z,0
2017-10-29T04:36:41.201Z,0
2017-10-29T04:37:41.154Z,0
2017-10-29T04:38:40.820Z,0
2017-10-29T04:39:41.148Z,0
2017-10-29T04:40:41.133Z,0
2017-10-29T04:41:41.113Z,0
2017-10-29T04:42:41.105Z,0
2017-10-29T04:43:40.776Z,0
2017-10-29T04:44:41.092Z,0
2017-10-29T04:45:41.074Z,0
2017-10-29T04:46:41.063Z,0
2017-10-29T04:47:40.730Z,0
2017-10-29T04:48:40.735Z,0
2017-10-29T04:49:41.044Z,0
2017-10-29T04:50:40.700Z,0
2017-10-29T04:51:41.014Z,0
2017-10-29T04:52:41.004Z,0
2017-10-29T04:53:41.001Z,0
2017-10-29T04:54:40.983Z,0
2017-10-29T04:55:40.651Z,0
2017-10-29T04:56:40.971Z,0
2017-10-29T04:57:41.198Z,0
2017-10-29T04:58:40.936Z,0
2017-10-29T04:59:40.940Z,0
2017-10-29T05:00:40.922Z,0
2017-10-29T05:01:40.589Z,0
2017-10-29T05:02:40.908Z,0
2017-10-29T05:03:40.567Z,0
2017-10-29T05:04:40.902Z,0
2017-10-29T05:05:40.866Z,0
2017-10-29T05:06:40.539Z,0
2017-10-29T05:07:40.852Z,0
2017-10-29T05:08:40.525Z,0
2017-10-29T05:09:40.835Z,0
2017-10-29T05:10:40.501Z,0
2017-10-29T05:11:40.809Z,0
2017-10-29T05:12:40.792Z,0
2017-10-29T05:13:40.791Z,0
2017-10-29T05:14:40.783Z,0
2017-10-29T05:15:40.445Z,0
2017-10-29T05:16:40.435Z,0
2017-10-29T05:17:40.451Z,0
2017-10-29T05:18:40.409Z,0
2017-10-29T05:19:40.720Z,0
2017-10-29T05:20:40.712Z,0
2017-10-29T05:21:40.697Z,0
2017-10-29T05:22:40.368Z,0
2017-10-29T05:23:40.689Z,0
2017-10-29T05:24:40.341Z,0
2017-10-29T05:25:40.671Z,0
2017-10-29T05:26:40.644Z,0
2017-10-29T05:27:39.988Z,0
2017-10-29T05:28:40.549Z,0
2017-10-29T05:29:40.618Z,0
2017-10-29T05:30:40.288Z,0
2017-10-29T05:31:40.599Z,0
2017-10-29T05:32:40.582Z,0
2017-10-29T05:33:40.251Z,0
2017-10-29T05:34:40.560Z,0
2017-10-29T05:35:40.222Z,0
2017-10-29T05:36:40.538Z,0
2017-10-29T05:37:40.534Z,0
2017-10-29T05:38:40.193Z,0
2017-10-29T05:39:40.518Z,0
2017-10-29T05:40:40.494Z,0
2017-10-29T05:41:40.164Z,0
2017-10-29T05:42:40.479Z,0
2017-10-29T05:43:40.469Z,0
2017-10-29T05:44:40.457Z,0
2017-10-29T05:45:40.143Z,0
2017-10-29T05:46:40.435Z,0
2017-10-29T05:47:40.091Z,0
2017-10-29T05:48:40.414Z,5
2017-10-29T05:49:40.076Z,5
2017-10-29T05:50:40.389Z,5
2017-10-29T05:51:40.372Z,5
2017-10-29T05:52:40.362Z,5
2017-10-29T05:53:40.357Z,5
2017-10-29T05:54:40.342Z,5
2017-10-29T05:55:40.336Z,5
2017-10-29T05:56:40.321Z,5
2017-10-29T05:57:40.312Z,5
2017-10-29T05:58:40.301Z,10
2017-10-29T05:59:40.295Z,10
2017-10-29T06:00:40.525Z,15
2017-10-29T06:01:40.277Z,15
2017-10-29T06:02:40.267Z,15
2017-10-29T06:03:39.952Z,15
2017-10-29T06:04:40.239Z,15
2017-10-29T06:05:40.228Z,15
2017-10-29T06:06:39.897Z,20
2017-10-29T06:07:40.205Z,30
2017-10-29T06:08:40.198Z,40
2017-10-29T06:09:39.860Z,50
2017-10-29T06:10:40.180Z,55
2017-10-29T06:11:39.836Z,55
2017-10-29T06:12:40.161Z,40
2017-10-29T06:13:40.138Z,35
2017-10-29T06:14:39.494Z,25
2017-10-29T06:15:40.127Z,15
2017-10-29T06:16:40.125Z,10
2017-10-29T06:17:40.100Z,10
2017-10-29T06:18:40.092Z,10
2017-10-29T06:19:40.078Z,10
2017-10-29T06:20:40.070Z,5
2017-10-29T06:21:40.066Z,5
2017-10-29T06:22:40.051Z,5
2017-10-29T06:23:40.041Z,5
2017-10-29T06:24:39.733Z,5
2017-10-29T06:25:40.060Z,10
2017-10-29T06:26:40.015Z,20
2017-10-29T06:27:39.999Z,25
2017-10-29T06:28:39.986Z,35
2017-10-29T06:29:40.011Z,40
2017-10-29T06:30:39.969Z,25
2017-10-29T06:31:40.210Z,30
2017-10-29T06:32:39.951Z,25
2017-10-29T06:33:39.937Z,20
2017-10-29T06:34:39.285Z,15
2017-10-29T06:35:39.602Z,15
2017-10-29T06:36:39.582Z,15
2017-10-29T06:37:39.574Z,15
2017-10-29T06:38:39.888Z,10
2017-10-29T06:39:39.879Z,15
2017-10-29T06:40:39.865Z,15
2017-10-29T06:41:39.861Z,20
2017-10-29T06:42:39.528Z,15
2017-10-29T06:43:39.848Z,15
2017-10-29T06:44:39.503Z,15
2017-10-29T06:45:39.489Z,15
2017-10-29T06:46:39.491Z,20
2017-10-29T06:47:39.478Z,25
2017-10-29T06:48:39.781Z,30
2017-10-29T06:49:39.480Z,35
2017-10-29T06:50:39.771Z,35
2017-10-29T06:51:39.752Z,40
2017-10-29T06:52:39.416Z,55
2017-10-29T06:53:39.736Z,40
2017-10-29T06:54:39.740Z,35
2017-10-29T06:55:39.711Z,35
2017-10-29T06:56:39.731Z,35
2017-10-29T06:57:39.694Z,35
2017-10-29T06:58:39.690Z,50
2017-10-29T06:59:39.353Z,40
2017-10-29T07:00:39.674Z,45
2017-10-29T07:01:39.340Z,70
2017-10-29T07:02:39.901Z,85
2017-10-29T07:03:39.630Z,80
2017-10-29T07:04:39.619Z,95
2017-10-29T07:05:39.626Z,85
2017-10-29T07:06:39.603Z,85
2017-10-29T07:07:38.945Z,105
2017-10-29T07:08:38.946Z,120
2017-10-29T07:09:39.573Z,130
2017-10-29T07:10:39.236Z,120
2017-10-29T07:11:39.550Z,145
2017-10-29T07:12:39.231Z,150
2017-10-29T07:13:39.532Z,145
2017-10-29T07:14:39.531Z,120
2017-10-29T07:15:39.523Z,125
2017-10-29T07:16:39.180Z,140
2017-10-29T07:17:39.493Z,125
2017-10-29T07:18:39.156Z,120
2017-10-29T07:19:39.151Z,135
2017-10-29T07:20:39.455Z,150
2017-10-29T07:21:39.134Z,125
2017-10-29T07:22:38.797Z,110
2017-10-29T07:23:39.112Z,145
2017-10-29T07:24:39.461Z,140
2017-10-29T07:25:38.762Z,110
2017-10-29T07:26:39.402Z,100
2017-10-29T07:27:39.396Z,105
2017-10-29T07:28:39.384Z,115
2017-10-29T07:29:39.049Z,105
2017-10-29T07:30:39.043Z,110
2017-10-29T07:31:38.704Z,100
2017-10-29T07:32:39.019Z,125
2017-10-29T07:33:39.259Z,155
2017-10-29T07:34:39.353Z,170
2017-10-29T07:35:39.313Z,130
2017-10-29T07:36:38.657Z,120
2017-10-29T07:37:39.289Z,80
2017-10-29T07:38:38.961Z,95
2017-10-29T07:39:38.624Z,85
2017-10-29T07:40:38.941Z,70
2017-10-29T07:41:38.930Z,90
2017-10-29T07:42:39.249Z,95
2017-10-29T07:43:39.227Z,135
2017-10-29T07:44:39.266Z,115
2017-10-29T07:45:38.572Z,85
2017-10-29T07:46:39.233Z,70
2017-10-29T07:47:38.888Z,75
2017-10-29T07:48:39.196Z,80
2017-10-29T07:49:39.172Z,110
2017-10-29T07:50:39.160Z,90
2017-10-29T07:51:38.833Z,90
2017-10-29T07:52:38.834Z,95
2017-10-29T07:53:38.490Z,70
2017-10-29T07:54:39.133Z,80
2017-10-29T07:55:38.801Z,120
2017-10-29T07:56:38.461Z,155
2017-10-29T07:57:38.781Z,165
2017-10-29T07:58:39.091Z,130
2017-10-29T07:59:39.076Z,115
2017-10-29T08:00:38.752Z,90
2017-10-29T08:01:38.743Z,95
2017-10-29T08:02:38.729Z,95
2017-10-29T08:03:39.037Z,95
2017-10-29T08:04:39.280Z,125
2017-10-29T08:05:38.698Z,115
2017-10-29T08:06:39.015Z,95
2017-10-29T08:07:38.679Z,100
2017-10-29T08:08:38.675Z,115
2017-10-29T08:09:38.665Z,115
2017-10-29T08:10:38.974Z,130
2017-10-29T08:11:38.645Z,105
2017-10-29T08:12:38.956Z,70
2017-10-29T08:13:38.298Z,80
2017-10-29T08:14:38.611Z,70
2017-10-29T08:15:38.607Z,105
2017-10-29T08:16:38.593Z,110
2017-10-29T08:17:38.589Z,135
2017-10-29T08:18:38.579Z,120
2017-10-29T08:19:37.924Z,100
2017-10-29T08:20:38.228Z,95
2017-10-29T08:21:38.869Z,100
2017-10-29T08:22:38.543Z,95
2017-10-29T08:23:38.846Z,130
2017-10-29T08:24:38.846Z,90
2017-10-29T08:25:38.505Z,110
2017-10-29T08:26:38.841Z,130
2017-10-29T08:27:38.811Z,120
2017-10-29T08:28:38.800Z,115
2017-10-29T08:29:38.787Z,120
2017-10-29T08:30:38.784Z,105
2017-10-29T08:31:38.776Z,70
2017-10-29T08:32:38.797Z,85
2017-10-29T08:33:38.753Z,85
2017-10-29T08:34:38.748Z,125
2017-10-29T08:35:38.982Z,145
2017-10-29T08:36:38.723Z,115
2017-10-29T08:37:38.732Z,125
2017-10-29T08:38:38.379Z,110
2017-10-29T08:39:38.371Z,105
2017-10-29T08:40:38.028Z,145
2017-10-29T08:41:38.672Z,175
2017-10-29T08:42:38.334Z,175
2017-10-29T08:43:38.325Z,160
2017-10-29T08:44:38.648Z,200
2017-10-29T08:45:38.307Z,220
2017-10-29T08:46:38.005Z,310
2017-10-29T08:47:37.967Z,300
2017-10-29T08:48:38.598Z,365
2017-10-29T08:49:38.592Z,325
2017-10-29T08:50:38.585Z,255
2017-10-29T08:51:38.572Z,255
2017-10-29T08:52:38.582Z,255
2017-10-29T08:53:38.551Z,230
2017-10-29T08:54:38.217Z,175
2017-10-29T08:55:38.215Z,150
2017-10-29T08:56:38.530Z,155
2017-10-29T08:57:38.213Z,140
2017-10-29T08:58:38.182Z,120
2017-10-29T08:59:38.501Z,115
2017-10-29T09:00:38.508Z,130
2017-10-29T09:01:38.151Z,145
2017-10-29T09:02:38.481Z,160
2017-10-29T09:03:38.131Z,195
2017-10-29T09:04:38.122Z,150
2017-10-29T09:05:38.432Z,140
2017-10-29T09:06:38.429Z,110
2017-10-29T09:07:38.343Z,90
2017-10-29T09:08:38.413Z,95
2017-10-29T09:09:38.403Z,135
2017-10-29T09:10:38.399Z,95
2017-10-29T09:11:38.073Z,70
2017-10-29T09:12:38.053Z,85
2017-10-29T09:13:38.364Z,110
2017-10-29T09:14:37.701Z,95
2017-10-29T09:15:38.351Z,100
2017-10-29T09:16:38.353Z,80
2017-10-29T09:17:37.680Z,80
2017-10-29T09:18:38.316Z,95
2017-10-29T09:19:38.303Z,85
2017-10-29T09:20:38.292Z,80
2017-10-29T09:21:37.969Z,80
2017-10-29T09:22:38.585Z,100
2017-10-29T09:23:37.938Z,170
2017-10-29T09:24:37.936Z,170
2017-10-29T09:25:38.238Z,160
2017-10-29T09:26:37.586Z,190
2017-10-29T09:27:38.230Z,320
2017-10-29T09:28:38.209Z,345
2017-10-29T09:29:37.883Z,375
2017-10-29T09:30:38.211Z,400
2017-10-29T09:31:37.858Z,325
2017-10-29T09:32:37.855Z,320
2017-10-29T09:33:38.171Z,335
2017-10-29T09:34:37.826Z,350
2017-10-29T09:35:38.152Z,355
2017-10-29T09:36:38.138Z,395
2017-10-29T09:37:38.132Z,335
2017-10-29T09:38:38.119Z,275
2017-10-29T09:39:38.105Z,260
2017-10-29T09:40:37.776Z,250
2017-10-29T09:41:38.090Z,240
2017-10-29T09:42:37.432Z,250
2017-10-29T09:43:38.091Z,215
2017-10-29T09:44:37.418Z,215
2017-10-29T09:45:38.060Z,210
2017-10-29T09:46:38.058Z,195
2017-10-29T09:47:38.031Z,240
2017-10-29T09:48:36.736Z,275
2017-10-29T09:49:38.021Z,300
2017-10-29T09:50:37.360Z,270
2017-10-29T09:51:38.033Z,355
2017-10-29T09:52:37.663Z,290
2017-10-29T09:53:37.987Z,295
2017-10-29T09:54:37.652Z,360
2017-10-29T09:55:37.646Z,435
2017-10-29T09:56:37.632Z,445
2017-10-29T09:57:37.945Z,415
2017-10-29T09:58:37.289Z,395
2017-10-29T09:59:37.283Z,345
2017-10-29T10:00:37.917Z,290
2017-10-29T10:01:37.937Z,280
2017-10-29T10:02:37.899Z,270
2017-10-29T10:03:37.587Z,220
2017-10-29T10:04:37.889Z,200
2017-10-29T10:05:37.588Z,200
2017-10-29T10:06:37.544Z,190
2017-10-29T10:07:37.215Z,170
2017-10-29T10:08:37.524Z,155
2017-10-29T10:09:37.865Z,110
2017-10-29T10:10:37.504Z,105
2017-10-29T10:11:37.508Z,135
2017-10-29T10:12:37.492Z,215
2017-10-29T10:13:37.811Z,255
2017-10-29T10:14:37.483Z,175
2017-10-29T10:15:37.477Z,175
2017-10-29T10:16:37.456Z,135
2017-10-29T10:17:37.767Z,145
2017-10-29T10:18:37.441Z,140
2017-10-29T10:19:37.434Z,225
2017-10-29T10:20:37.744Z,315
2017-10-29T10:21:37.747Z,360
2017-10-29T10:22:37.731Z,340
2017-10-29T10:23:37.731Z,330
2017-10-29T10:24:37.711Z,350
2017-10-29T10:25:37.378Z,315
2017-10-29T10:26:37.687Z,300
2017-10-29T10:27:37.690Z,230
2017-10-29T10:28:37.350Z,220
2017-10-29T10:29:37.664Z,295
2017-10-29T10:30:37.652Z,330
2017-10-29T10:31:37.643Z,340
2017-10-29T10:32:37.308Z,385
2017-10-29T10:33:37.634Z,375
2017-10-29T10:34:37.620Z,350
2017-10-29T10:35:36.957Z,300
2017-10-29T10:36:37.271Z,290
2017-10-29T10:37:37.260Z,275
2017-10-29T10:38:37.574Z,335
2017-10-29T10:39:37.562Z,365
2017-10-29T10:40:37.550Z,365
2017-10-29T10:41:36.903Z,370
2017-10-29T10:42:37.532Z,370
2017-10-29T10:43:37.219Z,380
2017-10-29T10:44:37.519Z,400
2017-10-29T10:45:37.184Z,400
2017-10-29T10:46:37.502Z,415
2017-10-29T10:47:37.182Z,415
2017-10-29T10:48:37.156Z,405
2017-10-29T10:49:37.475Z,410
2017-10-29T10:50:37.479Z,430
2017-10-29T10:51:37.453Z,425
2017-10-29T10:52:37.169Z,410
2017-10-29T10:53:37.439Z,375
2017-10-29T10:54:37.435Z,335
2017-10-29T10:55:37.437Z,315
2017-10-29T10:56:37.100Z,300
2017-10-29T10:57:37.425Z,305
2017-10-29T10:58:37.070Z,320
2017-10-29T10:59:37.073Z,345
2017-10-29T11:00:37.051Z,350
2017-10-29T11:01:36.723Z,365
2017-10-29T11:02:37.363Z,375
2017-10-29T11:03:37.375Z,375
2017-10-29T11:04:37.350Z,350
2017-10-29T11:05:37.019Z,255
2017-10-29T11:06:37.005Z,200
2017-10-29T11:07:37.328Z,215
2017-10-29T11:08:37.316Z,295
2017-10-29T11:09:36.987Z,305
2017-10-29T11:10:37.304Z,290
2017-10-29T11:11:37.293Z,310
2017-10-29T11:12:37.290Z,290
2017-10-29T11:13:37.287Z,260
2017-10-29T11:14:37.272Z,245
2017-10-29T11:15:37.262Z,245
2017-10-29T11:16:36.280Z,255
2017-10-29T11:17:36.927Z,245
2017-10-29T11:18:37.233Z,205
2017-10-29T11:19:36.902Z,160
2017-10-29T11:20:37.218Z,145
2017-10-29T11:21:37.209Z,200
2017-10-29T11:22:36.881Z,155
2017-10-29T11:23:36.872Z,125
2017-10-29T11:24:36.863Z,150
2017-10-29T11:25:37.176Z,175
2017-10-29T11:26:36.851Z,235
2017-10-29T11:27:37.169Z,135
2017-10-29T11:28:37.150Z,110
2017-10-29T11:29:37.159Z,95
2017-10-29T11:30:36.821Z,90
2017-10-29T11:31:37.163Z,90
2017-10-29T11:32:37.120Z,85
2017-10-29T11:33:37.111Z,80
2017-10-29T11:34:36.775Z,80
2017-10-29T11:35:36.768Z,80
2017-10-29T11:36:36.756Z,80
2017-10-29T11:37:36.750Z,130
2017-10-29T11:38:37.071Z,195
2017-10-29T11:39:37.050Z,230
2017-10-29T11:40:36.396Z,245
2017-10-29T11:41:36.414Z,260
2017-10-29T11:42:37.030Z,260
2017-10-29T11:43:37.041Z,245
2017-10-29T11:44:36.689Z,225
2017-10-29T11:45:36.681Z,205
2017-10-29T11:46:36.345Z,200
2017-10-29T11:47:36.976Z,215
2017-10-29T11:48:36.971Z,240
2017-10-29T11:49:36.636Z,250
2017-10-29T11:50:36.959Z,245
2017-10-29T11:51:36.948Z,220
2017-10-29T11:52:36.604Z,200
2017-10-29T11:53:36.927Z,185
2017-10-29T11:54:36.912Z,180
2017-10-29T11:55:36.575Z,170
2017-10-29T11:56:36.902Z,160
2017-10-29T11:57:36.891Z,165
2017-10-29T11:58:36.234Z,195
2017-10-29T11:59:36.551Z,220
2017-10-29T12:00:36.536Z,225
2017-10-29T12:01:36.849Z,230
2017-10-29T12:02:36.510Z,245
2017-10-29T12:03:36.188Z,255
2017-10-29T12:04:36.813Z,270
2017-10-29T12:05:36.480Z,265
2017-10-29T12:06:36.473Z,240
2017-10-29T12:07:36.785Z,205
2017-10-29T12:08:36.777Z,185
2017-10-29T12:09:36.790Z,195
2017-10-29T12:10:36.752Z,190
2017-10-29T12:11:36.746Z,195
2017-10-29T12:12:36.421Z,195
2017-10-29T12:13:36.728Z,200
2017-10-29T12:14:36.393Z,210
2017-10-29T12:15:36.381Z,220
2017-10-29T12:16:36.700Z,250
2017-10-29T12:17:36.695Z,290
2017-10-29T12:18:36.679Z,325
2017-10-29T12:19:36.667Z,320
2017-10-29T12:20:36.008Z,290
2017-10-29T12:21:36.650Z,245
2017-10-29T12:22:36.313Z,225
2017-10-29T12:23:36.301Z,215
2017-10-29T12:24:36.618Z,240
2017-10-29T12:25:36.292Z,280
2017-10-29T12:26:36.606Z,290
2017-10-29T12:27:36.271Z,290
2017-10-29T12:28:36.586Z,285
2017-10-29T12:29:36.568Z,260
2017-10-29T12:30:36.565Z,240
2017-10-29T12:31:36.543Z,235
2017-10-29T12:32:36.535Z,220
2017-10-29T12:33:36.527Z,195
2017-10-29T12:34:37.320Z,175
2017-10-29T12:35:36.514Z,160
2017-10-29T12:36:36.174Z,145
2017-10-29T12:37:35.841Z,140
2017-10-29T12:38:36.486Z,140
2017-10-29T12:39:36.147Z,140
2017-10-29T12:40:36.453Z,135
2017-10-29T12:41:35.801Z,100
2017-10-29T12:42:35.790Z,85
2017-10-29T12:43:36.428Z,80
2017-10-29T12:44:36.102Z,70
2017-10-29T12:45:36.416Z,65
2017-10-29T12:46:36.395Z,65
2017-10-29T12:47:35.423Z,60
2017-10-29T12:48:36.391Z,55
2017-10-29T12:49:36.377Z,55
2017-10-29T12:50:36.043Z,50
2017-10-29T12:51:36.026Z,55
2017-10-29T12:52:36.340Z,45
2017-10-29T12:53:36.327Z,45
2017-10-29T12:54:36.323Z,40
2017-10-29T12:55:35.984Z,45
2017-10-29T12:56:36.286Z,45
2017-10-29T12:57:35.959Z,55
2017-10-29T12:58:36.271Z,50
2017-10-29T12:59:36.264Z,50
2017-10-29T13:00:35.921Z,50
2017-10-29T13:01:36.235Z,55
2017-10-29T13:02:36.231Z,55
2017-10-29T13:03:35.891Z,70
2017-10-29T13:04:35.887Z,100
2017-10-29T13:05:36.223Z,130
2017-10-29T13:06:35.542Z,150
2017-10-29T13:07:35.527Z,160
2017-10-29T13:08:35.840Z,175
2017-10-29T13:09:36.156Z,185
2017-10-29T13:10:35.821Z,210
2017-10-29T13:11:36.124Z,235
2017-10-29T13:12:35.790Z,240
2017-10-29T13:13:36.111Z,230
2017-10-29T13:14:35.764Z,225
2017-10-29T13:15:35.442Z,215
2017-10-29T13:16:36.072Z,205
2017-10-29T13:17:36.061Z,200
2017-10-29T13:18:36.058Z,200
2017-10-29T13:19:36.048Z,195
2017-10-29T13:20:36.037Z,195
2017-10-29T13:21:36.015Z,190
2017-10-29T13:22:35.677Z,190
2017-10-29T13:23:35.669Z,180
2017-10-29T13:24:35.990Z,170
2017-10-29T13:25:35.983Z,160
2017-10-29T13:26:35.954Z,160
2017-10-29T13:27:35.624Z,155
2017-10-29T13:28:35.947Z,155
2017-10-29T13:29:35.605Z,150
2017-10-29T13:30:35.913Z,140
2017-10-29T13:31:35.901Z,135
2017-10-29T13:32:35.893Z,135
2017-10-29T13:33:35.903Z,135
2017-10-29T13:34:35.543Z,135
2017-10-29T13:35:35.858Z,135
2017-10-29T13:36:35.528Z,150
2017-10-29T13:37:36.137Z,175
2017-10-29T13:38:35.827Z,175
2017-10-29T13:39:35.824Z,180
2017-10-29T13:40:35.159Z,200
2017-10-29T13:41:35.467Z,205
2017-10-29T13:42:35.470Z,185
2017-10-29T13:43:35.457Z,215
2017-10-29T13:44:35.762Z,190
2017-10-29T13:45:35.747Z,190
2017-10-29T13:46:35.743Z,175
2017-10-29T13:47:35.748Z,160
2017-10-29T13:48:35.395Z,160
2017-10-29T13:49:35.383Z,165
2017-10-29T13:50:35.050Z,130
2017-10-29T13:51:35.362Z,125
2017-10-29T13:52:35.706Z,115
2017-10-29T13:53:35.358Z,120
2017-10-29T13:54:35.650Z,115
2017-10-29T13:55:35.636Z,110
2017-10-29T13:56:35.309Z,115
2017-10-29T13:57:35.296Z,115
2017-10-29T13:58:35.620Z,115
2017-10-29T13:59:35.597Z,115
2017-10-29T14:00:34.621Z,110
2017-10-29T14:01:35.576Z,115
2017-10-29T14:02:35.568Z,120
2017-10-29T14:03:35.240Z,120
2017-10-29T14:04:34.574Z,120
2017-10-29T14:05:35.529Z,115
2017-10-29T14:06:34.890Z,115
2017-10-29T14:07:35.192Z,115
2017-10-29T14:08:35.179Z,120
2017-10-29T14:09:35.162Z,110
2017-10-29T14:10:35.475Z,110
2017-10-29T14:11:35.467Z,105
2017-10-29T14:12:35.141Z,105
2017-10-29T14:13:35.445Z,100
2017-10-29T14:14:35.430Z,100
2017-10-29T14:15:35.441Z,100